sensor_id;sensor_type;location;lat;lon;timestamp;P1;durP1;ratioP1;P2;durP2;ratioP2
20527;SDS011;23612;50.894;10.700;2022-11-14T00:00:08;43.60;;;19.07;;
20527;SDS011;23612;50.894;10.700;2022-11-14T00:02:36;49.47;;;17.33;;
20527;SDS011;23612;50.894;10.700;2022-11-14T00:05:02;38.53;;;18.77;;
20527;SDS011;23612;50.894;10.700;2022-11-14T00:07:29;47.30;;;18.57;;
20527;SDS011;23612;50.894;10.700;2022-11-14T00:09:55;36.10;;;17.30;;
20527;SDS011;23612;50.894;10.700;2022-11-14T00:12:21;31.47;;;17.93;;
20527;SDS011;23612;50.894;10.700;2022-11-14T00:14:46;37.93;;;17.90;;
20527;SDS011;23612;50.894;10.700;2022-11-14T00:17:12;46.13;;;18.63;;
20527;SDS011;23612;50.894;10.700;2022-11-14T00:19:37;40.63;;;17.90;;
20527;SDS011;23612;50.894;10.700;2022-11-14T00:22:03;33.40;;;19.77;;
20527;SDS011;23612;50.894;10.700;2022-11-14T00:24:29;55.67;;;19.60;;
20527;SDS011;23612;50.894;10.700;2022-11-14T00:26:54;57.83;;;20.50;;
20527;SDS011;23612;50.894;10.700;2022-11-14T00:29:20;56.47;;;19.63;;
20527;SDS011;23612;50.894;10.700;2022-11-14T00:31:45;69.43;;;18.83;;
20527;SDS011;23612;50.894;10.700;2022-11-14T00:34:11;35.80;;;19.00;;
20527;SDS011;23612;50.894;10.700;2022-11-14T00:36:36;60.77;;;18.83;;
20527;SDS011;23612;50.894;10.700;2022-11-14T00:39:02;32.87;;;18.70;;
20527;SDS011;23612;50.894;10.700;2022-11-14T00:41:28;78.43;;;19.37;;
20527;SDS011;23612;50.894;10.700;2022-11-14T00:43:54;93.83;;;20.03;;
20527;SDS011;23612;50.894;10.700;2022-11-14T00:46:20;90.63;;;20.17;;
20527;SDS011;23612;50.894;10.700;2022-11-14T00:48:45;190.73;;;21.23;;
20527;SDS011;23612;50.894;10.700;2022-11-14T00:51:11;188.57;;;22.43;;
20527;SDS011;23612;50.894;10.700;2022-11-14T00:53:36;128.03;;;20.50;;
20527;SDS011;23612;50.894;10.700;2022-11-14T00:56:02;67.93;;;19.80;;
20527;SDS011;23612;50.894;10.700;2022-11-14T00:58:28;85.30;;;19.10;;
20527;SDS011;23612;50.894;10.700;2022-11-14T01:00:53;129.63;;;21.77;;
20527;SDS011;23612;50.894;10.700;2022-11-14T01:03:19;153.57;;;22.20;;
20527;SDS011;23612;50.894;10.700;2022-11-14T01:05:45;84.03;;;19.63;;
20527;SDS011;23612;50.894;10.700;2022-11-14T01:08:13;218.03;;;24.50;;
20527;SDS011;23612;50.894;10.700;2022-11-14T01:10:44;154.33;;;21.50;;
20527;SDS011;23612;50.894;10.700;2022-11-14T01:13:11;72.00;;;20.13;;
20527;SDS011;23612;50.894;10.700;2022-11-14T01:15:45;68.73;;;21.13;;
20527;SDS011;23612;50.894;10.700;2022-11-14T01:18:14;59.37;;;20.27;;
20527;SDS011;23612;50.894;10.700;2022-11-14T01:20:42;76.63;;;19.33;;
20527;SDS011;23612;50.894;10.700;2022-11-14T01:23:09;51.43;;;17.97;;
20527;SDS011;23612;50.894;10.700;2022-11-14T01:25:37;74.80;;;18.97;;
20527;SDS011;23612;50.894;10.700;2022-11-14T01:28:04;52.23;;;17.83;;
20527;SDS011;23612;50.894;10.700;2022-11-14T01:30:35;44.87;;;17.90;;
20527;SDS011;23612;50.894;10.700;2022-11-14T01:33:01;37.00;;;19.27;;
20527;SDS011;23612;50.894;10.700;2022-11-14T01:35:27;80.77;;;18.50;;
20527;SDS011;23612;50.894;10.700;2022-11-14T01:37:53;83.60;;;19.43;;
20527;SDS011;23612;50.894;10.700;2022-11-14T01:40:19;51.07;;;18.27;;
20527;SDS011;23612;50.894;10.700;2022-11-14T01:48:18;35.40;;;18.23;;
20527;SDS011;23612;50.894;10.700;2022-11-14T01:50:52;26.20;;;17.20;;
20527;SDS011;23612;50.894;10.700;2022-11-14T01:53:21;46.67;;;18.03;;
20527;SDS011;23612;50.894;10.700;2022-11-14T01:55:47;65.73;;;19.80;;
20527;SDS011;23612;50.894;10.700;2022-11-14T01:58:13;139.00;;;21.00;;
20527;SDS011;23612;50.894;10.700;2022-11-14T02:00:39;42.00;;;18.30;;
20527;SDS011;23612;50.894;10.700;2022-11-14T02:03:05;72.93;;;19.00;;
20527;SDS011;23612;50.894;10.700;2022-11-14T02:05:31;88.67;;;19.40;;
20527;SDS011;23612;50.894;10.700;2022-11-14T02:07:57;129.17;;;21.30;;
20527;SDS011;23612;50.894;10.700;2022-11-14T02:10:23;43.30;;;19.03;;
20527;SDS011;23612;50.894;10.700;2022-11-14T02:12:48;90.80;;;19.37;;
20527;SDS011;23612;50.894;10.700;2022-11-14T02:15:15;32.93;;;18.83;;
20527;SDS011;23612;50.894;10.700;2022-11-14T02:17:41;101.23;;;20.53;;
20527;SDS011;23612;50.894;10.700;2022-11-14T02:22:37;81.63;;;19.33;;
20527;SDS011;23612;50.894;10.700;2022-11-14T02:25:04;119.27;;;21.17;;
20527;SDS011;23612;50.894;10.700;2022-11-14T02:27:32;87.67;;;19.37;;
20527;SDS011;23612;50.894;10.700;2022-11-14T02:30:05;67.30;;;17.83;;
20527;SDS011;23612;50.894;10.700;2022-11-14T02:32:33;82.50;;;19.20;;
20527;SDS011;23612;50.894;10.700;2022-11-14T02:34:59;128.10;;;20.00;;
20527;SDS011;23612;50.894;10.700;2022-11-14T02:37:24;35.33;;;18.53;;
20527;SDS011;23612;50.894;10.700;2022-11-14T02:39:50;42.33;;;17.20;;
20527;SDS011;23612;50.894;10.700;2022-11-14T02:42:15;112.80;;;21.07;;
20527;SDS011;23612;50.894;10.700;2022-11-14T02:44:41;34.50;;;18.30;;
20527;SDS011;23612;50.894;10.700;2022-11-14T02:47:06;72.80;;;18.90;;
20527;SDS011;23612;50.894;10.700;2022-11-14T02:49:32;52.67;;;18.57;;
20527;SDS011;23612;50.894;10.700;2022-11-14T02:51:58;49.87;;;17.57;;
20527;SDS011;23612;50.894;10.700;2022-11-14T02:54:23;40.33;;;17.93;;
20527;SDS011;23612;50.894;10.700;2022-11-14T02:56:49;52.23;;;18.87;;
20527;SDS011;23612;50.894;10.700;2022-11-14T02:59:14;155.27;;;20.20;;
20527;SDS011;23612;50.894;10.700;2022-11-14T03:01:40;105.73;;;18.07;;
20527;SDS011;23612;50.894;10.700;2022-11-14T03:04:05;118.63;;;20.33;;
20527;SDS011;23612;50.894;10.700;2022-11-14T03:06:31;105.43;;;19.30;;
20527;SDS011;23612;50.894;10.700;2022-11-14T03:08:56;39.77;;;17.97;;
20527;SDS011;23612;50.894;10.700;2022-11-14T03:11:22;141.13;;;20.90;;
20527;SDS011;23612;50.894;10.700;2022-11-14T03:13:47;63.27;;;17.97;;
20527;SDS011;23612;50.894;10.700;2022-11-14T03:16:13;41.87;;;18.00;;
20527;SDS011;23612;50.894;10.700;2022-11-14T03:18:39;84.40;;;19.40;;
20527;SDS011;23612;50.894;10.700;2022-11-14T03:21:06;121.33;;;20.03;;
20527;SDS011;23612;50.894;10.700;2022-11-14T03:23:39;122.83;;;20.73;;
20527;SDS011;23612;50.894;10.700;2022-11-14T03:26:05;31.30;;;16.47;;
20527;SDS011;23612;50.894;10.700;2022-11-14T03:28:32;94.27;;;18.20;;
20527;SDS011;23612;50.894;10.700;2022-11-14T03:30:58;39.27;;;17.57;;
20527;SDS011;23612;50.894;10.700;2022-11-14T03:33:23;44.67;;;17.53;;
20527;SDS011;23612;50.894;10.700;2022-11-14T03:35:49;39.40;;;17.00;;
20527;SDS011;23612;50.894;10.700;2022-11-14T03:38:16;65.47;;;17.83;;
20527;SDS011;23612;50.894;10.700;2022-11-14T03:40:42;92.77;;;17.87;;
20527;SDS011;23612;50.894;10.700;2022-11-14T03:43:07;73.20;;;17.40;;
20527;SDS011;23612;50.894;10.700;2022-11-14T03:45:35;148.17;;;20.60;;
20527;SDS011;23612;50.894;10.700;2022-11-14T03:48:01;60.80;;;17.50;;
20527;SDS011;23612;50.894;10.700;2022-11-14T03:50:27;91.73;;;19.07;;
20527;SDS011;23612;50.894;10.700;2022-11-14T03:52:53;145.63;;;19.80;;
20527;SDS011;23612;50.894;10.700;2022-11-14T03:55:18;164.23;;;20.43;;
20527;SDS011;23612;50.894;10.700;2022-11-14T03:57:44;149.17;;;19.70;;
20527;SDS011;23612;50.894;10.700;2022-11-14T04:00:09;107.33;;;19.93;;
20527;SDS011;23612;50.894;10.700;2022-11-14T04:02:35;85.97;;;17.03;;
20527;SDS011;23612;50.894;10.700;2022-11-14T04:05:01;130.07;;;19.17;;
20527;SDS011;23612;50.894;10.700;2022-11-14T04:07:26;51.77;;;17.60;;
20527;SDS011;23612;50.894;10.700;2022-11-14T04:09:52;93.47;;;16.23;;
20527;SDS011;23612;50.894;10.700;2022-11-14T04:12:17;109.93;;;18.30;;
20527;SDS011;23612;50.894;10.700;2022-11-14T04:14:43;79.50;;;19.87;;
20527;SDS011;23612;50.894;10.700;2022-11-14T04:17:09;84.00;;;16.70;;
20527;SDS011;23612;50.894;10.700;2022-11-14T04:19:35;78.67;;;15.80;;
20527;SDS011;23612;50.894;10.700;2022-11-14T04:22:01;126.90;;;18.93;;
20527;SDS011;23612;50.894;10.700;2022-11-14T04:24:26;72.73;;;15.70;;
20527;SDS011;23612;50.894;10.700;2022-11-14T04:26:52;59.73;;;14.73;;
20527;SDS011;23612;50.894;10.700;2022-11-14T04:29:17;75.23;;;14.60;;
20527;SDS011;23612;50.894;10.700;2022-11-14T04:31:43;64.70;;;15.43;;
20527;SDS011;23612;50.894;10.700;2022-11-14T04:34:09;81.60;;;15.10;;
20527;SDS011;23612;50.894;10.700;2022-11-14T04:36:34;51.70;;;14.27;;
20527;SDS011;23612;50.894;10.700;2022-11-14T04:39:00;34.23;;;13.67;;
20527;SDS011;23612;50.894;10.700;2022-11-14T04:41:25;34.30;;;13.40;;
20527;SDS011;23612;50.894;10.700;2022-11-14T04:43:51;33.70;;;13.27;;
20527;SDS011;23612;50.894;10.700;2022-11-14T04:46:16;21.80;;;13.35;;
20527;SDS011;23612;50.894;10.700;2022-11-14T04:48:42;22.97;;;13.43;;
20527;SDS011;23612;50.894;10.700;2022-11-14T04:51:08;22.90;;;13.80;;
20527;SDS011;23612;50.894;10.700;2022-11-14T04:53:33;28.37;;;13.07;;
20527;SDS011;23612;50.894;10.700;2022-11-14T04:55:59;28.27;;;14.33;;
20527;SDS011;23612;50.894;10.700;2022-11-14T04:58:24;28.10;;;13.07;;
20527;SDS011;23612;50.894;10.700;2022-11-14T05:00:50;24.10;;;12.80;;
20527;SDS011;23612;50.894;10.700;2022-11-14T05:03:16;18.50;;;13.03;;
20527;SDS011;23612;50.894;10.700;2022-11-14T05:05:41;22.43;;;13.60;;
20527;SDS011;23612;50.894;10.700;2022-11-14T05:08:07;23.00;;;13.97;;
20527;SDS011;23612;50.894;10.700;2022-11-14T05:10:32;22.80;;;13.27;;
20527;SDS011;23612;50.894;10.700;2022-11-14T05:12:58;24.40;;;13.97;;
20527;SDS011;23612;50.894;10.700;2022-11-14T05:15:23;20.27;;;13.13;;
20527;SDS011;23612;50.894;10.700;2022-11-14T05:17:49;26.03;;;16.87;;
20527;SDS011;23612;50.894;10.700;2022-11-14T05:20:15;35.10;;;13.27;;
20527;SDS011;23612;50.894;10.700;2022-11-14T05:22:40;21.50;;;13.10;;
20527;SDS011;23612;50.894;10.700;2022-11-14T05:25:06;18.43;;;13.00;;
20527;SDS011;23612;50.894;10.700;2022-11-14T05:27:32;18.97;;;12.87;;
20527;SDS011;23612;50.894;10.700;2022-11-14T05:29:57;75.97;;;43.43;;
20527;SDS011;23612;50.894;10.700;2022-11-14T05:32:23;23.87;;;16.17;;
20527;SDS011;23612;50.894;10.700;2022-11-14T05:34:49;21.40;;;15.10;;
20527;SDS011;23612;50.894;10.700;2022-11-14T05:37:14;23.07;;;12.67;;
20527;SDS011;23612;50.894;10.700;2022-11-14T05:39:40;25.20;;;12.90;;
20527;SDS011;23612;50.894;10.700;2022-11-14T05:42:05;19.40;;;12.90;;
20527;SDS011;23612;50.894;10.700;2022-11-14T05:44:31;29.80;;;19.10;;
20527;SDS011;23612;50.894;10.700;2022-11-14T05:46:56;44.00;;;24.37;;
20527;SDS011;23612;50.894;10.700;2022-11-14T05:49:22;22.63;;;14.17;;
20527;SDS011;23612;50.894;10.700;2022-11-14T05:51:48;20.93;;;13.87;;
20527;SDS011;23612;50.894;10.700;2022-11-14T05:54:13;37.63;;;21.70;;
20527;SDS011;23612;50.894;10.700;2022-11-14T05:56:39;33.60;;;20.17;;
20527;SDS011;23612;50.894;10.700;2022-11-14T05:59:04;24.63;;;15.63;;
20527;SDS011;23612;50.894;10.700;2022-11-14T06:01:30;50.03;;;29.40;;
20527;SDS011;23612;50.894;10.700;2022-11-14T06:03:56;23.80;;;14.33;;
20527;SDS011;23612;50.894;10.700;2022-11-14T06:06:21;31.63;;;19.63;;
20527;SDS011;23612;50.894;10.700;2022-11-14T06:08:47;40.20;;;21.93;;
20527;SDS011;23612;50.894;10.700;2022-11-14T06:11:15;24.00;;;15.50;;
20527;SDS011;23612;50.894;10.700;2022-11-14T06:13:42;30.27;;;16.60;;
20527;SDS011;23612;50.894;10.700;2022-11-14T06:16:09;34.97;;;18.57;;
20527;SDS011;23612;50.894;10.700;2022-11-14T06:18:39;28.80;;;14.07;;
20527;SDS011;23612;50.894;10.700;2022-11-14T06:21:06;27.53;;;16.00;;
20527;SDS011;23612;50.894;10.700;2022-11-14T06:23:35;26.27;;;14.13;;
20527;SDS011;23612;50.894;10.700;2022-11-14T06:26:02;33.33;;;17.17;;
20527;SDS011;23612;50.894;10.700;2022-11-14T06:28:29;32.53;;;16.17;;
20527;SDS011;23612;50.894;10.700;2022-11-14T06:30:56;37.57;;;17.67;;
20527;SDS011;23612;50.894;10.700;2022-11-14T06:33:26;41.37;;;16.53;;
20527;SDS011;23612;50.894;10.700;2022-11-14T06:36:02;40.37;;;17.70;;
20527;SDS011;23612;50.894;10.700;2022-11-14T06:38:30;48.47;;;17.83;;
20527;SDS011;23612;50.894;10.700;2022-11-14T06:43:39;30.20;;;17.27;;
20527;SDS011;23612;50.894;10.700;2022-11-14T06:46:10;59.53;;;20.30;;
20527;SDS011;23612;50.894;10.700;2022-11-14T06:48:38;41.87;;;17.90;;
20527;SDS011;23612;50.894;10.700;2022-11-14T06:51:05;31.27;;;17.33;;
20527;SDS011;23612;50.894;10.700;2022-11-14T06:53:32;32.87;;;16.27;;
20527;SDS011;23612;50.894;10.700;2022-11-14T06:58:35;30.57;;;16.10;;
20527;SDS011;23612;50.894;10.700;2022-11-14T07:01:05;44.20;;;15.87;;
20527;SDS011;23612;50.894;10.700;2022-11-14T07:03:34;68.67;;;15.70;;
20527;SDS011;23612;50.894;10.700;2022-11-14T07:06:00;41.77;;;15.97;;
20527;SDS011;23612;50.894;10.700;2022-11-14T07:08:26;58.13;;;15.80;;
20527;SDS011;23612;50.894;10.700;2022-11-14T07:10:52;76.83;;;17.20;;
20527;SDS011;23612;50.894;10.700;2022-11-14T07:13:17;33.23;;;15.97;;
20527;SDS011;23612;50.894;10.700;2022-11-14T07:15:52;40.73;;;16.10;;
20527;SDS011;23612;50.894;10.700;2022-11-14T07:18:18;55.90;;;16.57;;
20527;SDS011;23612;50.894;10.700;2022-11-14T07:20:44;47.47;;;15.43;;
20527;SDS011;23612;50.894;10.700;2022-11-14T07:23:10;31.80;;;15.30;;
20527;SDS011;23612;50.894;10.700;2022-11-14T07:25:36;55.27;;;16.40;;
20527;SDS011;23612;50.894;10.700;2022-11-14T07:28:01;37.10;;;16.80;;
20527;SDS011;23612;50.894;10.700;2022-11-14T07:30:27;120.23;;;22.50;;
20527;SDS011;23612;50.894;10.700;2022-11-14T07:32:54;63.20;;;20.97;;
20527;SDS011;23612;50.894;10.700;2022-11-14T07:35:23;79.97;;;30.43;;
20527;SDS011;23612;50.894;10.700;2022-11-14T07:37:49;98.93;;;40.53;;
20527;SDS011;23612;50.894;10.700;2022-11-14T07:40:15;125.70;;;42.77;;
20527;SDS011;23612;50.894;10.700;2022-11-14T07:42:42;78.37;;;36.67;;
20527;SDS011;23612;50.894;10.700;2022-11-14T07:45:08;59.57;;;27.93;;
20527;SDS011;23612;50.894;10.700;2022-11-14T07:47:34;76.47;;;25.97;;
20527;SDS011;23612;50.894;10.700;2022-11-14T07:50:00;54.40;;;18.13;;
20527;SDS011;23612;50.894;10.700;2022-11-14T07:52:25;33.07;;;16.60;;
20527;SDS011;23612;50.894;10.700;2022-11-14T07:54:51;46.63;;;16.97;;
20527;SDS011;23612;50.894;10.700;2022-11-14T07:57:16;45.57;;;16.80;;
20527;SDS011;23612;50.894;10.700;2022-11-14T07:59:42;39.13;;;16.87;;
20527;SDS011;23612;50.894;10.700;2022-11-14T08:02:11;42.63;;;14.80;;
20527;SDS011;23612;50.894;10.700;2022-11-14T08:04:38;27.73;;;14.23;;
20527;SDS011;23612;50.894;10.700;2022-11-14T08:07:07;42.50;;;21.20;;
20527;SDS011;23612;50.894;10.700;2022-11-14T08:09:33;30.37;;;15.33;;
20527;SDS011;23612;50.894;10.700;2022-11-14T08:11:58;32.43;;;14.17;;
20527;SDS011;23612;50.894;10.700;2022-11-14T08:14:24;35.07;;;14.30;;
20527;SDS011;23612;50.894;10.700;2022-11-14T08:16:50;39.00;;;14.73;;
20527;SDS011;23612;50.894;10.700;2022-11-14T08:19:16;45.80;;;15.27;;
20527;SDS011;23612;50.894;10.700;2022-11-14T08:21:42;46.17;;;15.03;;
20527;SDS011;23612;50.894;10.700;2022-11-14T08:24:08;58.73;;;16.63;;
20527;SDS011;23612;50.894;10.700;2022-11-14T08:26:34;76.30;;;17.07;;
20527;SDS011;23612;50.894;10.700;2022-11-14T08:28:59;33.67;;;15.87;;
20527;SDS011;23612;50.894;10.700;2022-11-14T08:31:25;57.37;;;17.20;;
20527;SDS011;23612;50.894;10.700;2022-11-14T08:33:51;104.70;;;16.73;;
20527;SDS011;23612;50.894;10.700;2022-11-14T08:36:17;149.10;;;17.57;;
20527;SDS011;23612;50.894;10.700;2022-11-14T08:38:43;150.93;;;19.37;;
20527;SDS011;23612;50.894;10.700;2022-11-14T08:41:08;92.00;;;19.73;;
20527;SDS011;23612;50.894;10.700;2022-11-14T08:43:34;54.47;;;18.73;;
20527;SDS011;23612;50.894;10.700;2022-11-14T08:46:01;82.67;;;16.03;;
20527;SDS011;23612;50.894;10.700;2022-11-14T08:48:28;148.07;;;17.30;;
20527;SDS011;23612;50.894;10.700;2022-11-14T08:50:54;57.93;;;15.70;;
20527;SDS011;23612;50.894;10.700;2022-11-14T08:53:20;56.43;;;18.63;;
20527;SDS011;23612;50.894;10.700;2022-11-14T08:55:46;139.73;;;19.50;;
20527;SDS011;23612;50.894;10.700;2022-11-14T08:58:12;126.93;;;17.40;;
20527;SDS011;23612;50.894;10.700;2022-11-14T09:00:38;27.87;;;14.87;;
20527;SDS011;23612;50.894;10.700;2022-11-14T09:03:07;49.07;;;16.10;;
20527;SDS011;23612;50.894;10.700;2022-11-14T09:05:40;30.10;;;15.90;;
20527;SDS011;23612;50.894;10.700;2022-11-14T09:08:06;62.47;;;16.70;;
20527;SDS011;23612;50.894;10.700;2022-11-14T09:10:32;36.40;;;15.90;;
20527;SDS011;23612;50.894;10.700;2022-11-14T09:12:59;53.10;;;15.65;;
20527;SDS011;23612;50.894;10.700;2022-11-14T09:15:28;34.27;;;16.40;;
20527;SDS011;23612;50.894;10.700;2022-11-14T09:17:55;36.33;;;16.00;;
20527;SDS011;23612;50.894;10.700;2022-11-14T09:20:22;46.83;;;15.63;;
20527;SDS011;23612;50.894;10.700;2022-11-14T09:22:49;52.83;;;14.82;;
20527;SDS011;23612;50.894;10.700;2022-11-14T09:25:18;46.72;;;15.30;;
20527;SDS011;23612;50.894;10.700;2022-11-14T09:27:44;80.22;;;17.10;;
20527;SDS011;23612;50.894;10.700;2022-11-14T09:30:10;93.15;;;16.67;;
20527;SDS011;23612;50.894;10.700;2022-11-14T09:32:36;55.78;;;18.27;;
20527;SDS011;23612;50.894;10.700;2022-11-14T09:35:02;73.55;;;17.50;;
20527;SDS011;23612;50.894;10.700;2022-11-14T09:37:28;47.08;;;18.00;;
20527;SDS011;23612;50.894;10.700;2022-11-14T09:39:54;50.42;;;18.67;;
20527;SDS011;23612;50.894;10.700;2022-11-14T09:42:33;85.07;;;19.98;;
20527;SDS011;23612;50.894;10.700;2022-11-14T09:45:32;51.00;;;21.55;;
20527;SDS011;23612;50.894;10.700;2022-11-14T09:48:12;44.72;;;21.77;;
20527;SDS011;23612;50.894;10.700;2022-11-14T09:50:44;50.65;;;21.38;;
20527;SDS011;23612;50.894;10.700;2022-11-14T09:53:31;50.13;;;22.85;;
20527;SDS011;23612;50.894;10.700;2022-11-14T09:56:01;40.17;;;19.80;;
20527;SDS011;23612;50.894;10.700;2022-11-14T09:58:26;46.63;;;20.77;;
20527;SDS011;23612;50.894;10.700;2022-11-14T10:00:53;38.25;;;19.77;;
20527;SDS011;23612;50.894;10.700;2022-11-14T10:08:52;38.85;;;19.30;;
20527;SDS011;23612;50.894;10.700;2022-11-14T10:11:34;38.67;;;18.85;;
20527;SDS011;23612;50.894;10.700;2022-11-14T10:17:28;34.33;;;16.67;;
20527;SDS011;23612;50.894;10.700;2022-11-14T10:20:24;38.33;;;18.75;;
20527;SDS011;23612;50.894;10.700;2022-11-14T10:23:03;65.30;;;17.60;;
20527;SDS011;23612;50.894;10.700;2022-11-14T10:25:36;32.90;;;17.35;;
20527;SDS011;23612;50.894;10.700;2022-11-14T10:33:55;41.60;;;20.90;;
20527;SDS011;23612;50.894;10.700;2022-11-14T10:36:46;46.05;;;25.63;;
20527;SDS011;23612;50.894;10.700;2022-11-14T10:39:23;45.47;;;23.25;;
20527;SDS011;23612;50.894;10.700;2022-11-14T10:42:00;43.22;;;24.73;;
20527;SDS011;23612;50.894;10.700;2022-11-14T10:44:33;41.40;;;23.05;;
20527;SDS011;23612;50.894;10.700;2022-11-14T10:47:04;48.00;;;22.35;;
20527;SDS011;23612;50.894;10.700;2022-11-14T10:49:34;42.38;;;21.73;;
20527;SDS011;23612;50.894;10.700;2022-11-14T10:52:02;49.17;;;20.60;;
20527;SDS011;23612;50.894;10.700;2022-11-14T10:54:35;44.67;;;21.83;;
20527;SDS011;23612;50.894;10.700;2022-11-14T10:57:17;35.55;;;19.13;;
20527;SDS011;23612;50.894;10.700;2022-11-14T10:59:44;36.35;;;21.40;;
20527;SDS011;23612;50.894;10.700;2022-11-14T11:02:11;31.02;;;18.65;;
20527;SDS011;23612;50.894;10.700;2022-11-14T11:04:41;25.58;;;17.15;;
20527;SDS011;23612;50.894;10.700;2022-11-14T11:09:33;34.17;;;18.85;;
20527;SDS011;23612;50.894;10.700;2022-11-14T11:13:01;35.88;;;21.17;;
20527;SDS011;23612;50.894;10.700;2022-11-14T11:15:14;31.98;;;19.30;;
20527;SDS011;23612;50.894;10.700;2022-11-14T11:17:53;29.27;;;18.58;;
20527;SDS011;23612;50.894;10.700;2022-11-14T11:20:23;33.78;;;21.00;;
20527;SDS011;23612;50.894;10.700;2022-11-14T11:25:35;38.53;;;23.05;;
20527;SDS011;23612;50.894;10.700;2022-11-14T11:28:06;60.92;;;36.03;;
20527;SDS011;23612;50.894;10.700;2022-11-14T11:30:38;35.63;;;22.23;;
20527;SDS011;23612;50.894;10.700;2022-11-14T11:33:14;35.45;;;21.40;;
20527;SDS011;23612;50.894;10.700;2022-11-14T11:35:39;41.92;;;24.95;;
20527;SDS011;23612;50.894;10.700;2022-11-14T11:38:06;42.00;;;22.88;;
20527;SDS011;23612;50.894;10.700;2022-11-14T11:40:35;59.35;;;22.27;;
20527;SDS011;23612;50.894;10.700;2022-11-14T11:43:02;40.78;;;21.67;;
20527;SDS011;23612;50.894;10.700;2022-11-14T11:45:35;44.95;;;22.65;;
20527;SDS011;23612;50.894;10.700;2022-11-14T11:48:08;37.42;;;21.05;;
20527;SDS011;23612;50.894;10.700;2022-11-14T11:50:41;35.10;;;22.75;;
20527;SDS011;23612;50.894;10.700;2022-11-14T11:55:48;38.58;;;24.33;;
20527;SDS011;23612;50.894;10.700;2022-11-14T12:00:45;36.35;;;21.33;;
20527;SDS011;23612;50.894;10.700;2022-11-14T12:03:12;29.75;;;20.27;;
20527;SDS011;23612;50.894;10.700;2022-11-14T12:05:41;27.40;;;18.90;;
20527;SDS011;23612;50.894;10.700;2022-11-14T12:08:36;29.40;;;18.02;;
20527;SDS011;23612;50.894;10.700;2022-11-14T12:11:26;25.65;;;17.85;;
20527;SDS011;23612;50.894;10.700;2022-11-14T12:22:31;23.20;;;17.00;;
20527;SDS011;23612;50.894;10.700;2022-11-14T12:30:56;20.08;;;15.80;;
20527;SDS011;23612;50.894;10.700;2022-11-14T12:33:31;21.35;;;17.00;;
20527;SDS011;23612;50.894;10.700;2022-11-14T12:36:05;18.38;;;15.18;;
20527;SDS011;23612;50.894;10.700;2022-11-14T12:38:40;17.27;;;14.13;;
20527;SDS011;23612;50.894;10.700;2022-11-14T12:41:06;15.48;;;13.75;;
20527;SDS011;23612;50.894;10.700;2022-11-14T12:43:35;17.75;;;14.63;;
20527;SDS011;23612;50.894;10.700;2022-11-14T12:46:05;16.65;;;13.43;;
20527;SDS011;23612;50.894;10.700;2022-11-14T12:51:47;18.48;;;15.05;;
20527;SDS011;23612;50.894;10.700;2022-11-14T12:53:54;23.20;;;14.85;;
20527;SDS011;23612;50.894;10.700;2022-11-14T12:56:39;16.00;;;13.25;;
20527;SDS011;23612;50.894;10.700;2022-11-14T12:59:32;15.35;;;12.32;;
20527;SDS011;23612;50.894;10.700;2022-11-14T13:02:17;16.83;;;13.48;;
20527;SDS011;23612;50.894;10.700;2022-11-14T13:05:17;16.20;;;13.15;;
20527;SDS011;23612;50.894;10.700;2022-11-14T13:10:37;21.27;;;13.95;;
20527;SDS011;23612;50.894;10.700;2022-11-14T13:13:07;15.05;;;12.57;;
20527;SDS011;23612;50.894;10.700;2022-11-14T13:15:57;17.30;;;12.45;;
20527;SDS011;23612;50.894;10.700;2022-11-14T13:18:49;12.07;;;10.77;;
20527;SDS011;23612;50.894;10.700;2022-11-14T13:21:36;17.40;;;12.45;;
20527;SDS011;23612;50.894;10.700;2022-11-14T13:24:17;13.80;;;11.75;;
20527;SDS011;23612;50.894;10.700;2022-11-14T13:32:06;13.48;;;11.88;;
20527;SDS011;23612;50.894;10.700;2022-11-14T13:34:49;13.27;;;11.88;;
20527;SDS011;23612;50.894;10.700;2022-11-14T13:42:43;17.08;;;12.57;;
20527;SDS011;23612;50.894;10.700;2022-11-14T13:51:10;18.33;;;14.15;;
20527;SDS011;23612;50.894;10.700;2022-11-14T13:53:40;14.60;;;12.80;;
20527;SDS011;23612;50.894;10.700;2022-11-14T14:10:41;18.85;;;14.90;;
20527;SDS011;23612;50.894;10.700;2022-11-14T14:16:02;18.80;;;14.13;;
20527;SDS011;23612;50.894;10.700;2022-11-14T14:18:51;18.90;;;14.90;;
20527;SDS011;23612;50.894;10.700;2022-11-14T14:24:33;42.25;;;21.48;;
20527;SDS011;23612;50.894;10.700;2022-11-14T14:27:03;34.17;;;20.05;;
20527;SDS011;23612;50.894;10.700;2022-11-14T14:32:16;26.00;;;17.00;;
20527;SDS011;23612;50.894;10.700;2022-11-14T14:34:43;24.38;;;17.02;;
20527;SDS011;23612;50.894;10.700;2022-11-14T14:37:16;28.50;;;19.10;;
20527;SDS011;23612;50.894;10.700;2022-11-14T14:39:59;25.85;;;17.55;;
20527;SDS011;23612;50.894;10.700;2022-11-14T14:42:27;25.45;;;18.10;;
20527;SDS011;23612;50.894;10.700;2022-11-14T14:45:00;25.25;;;17.50;;
20527;SDS011;23612;50.894;10.700;2022-11-14T14:49:59;41.13;;;25.52;;
20527;SDS011;23612;50.894;10.700;2022-11-14T14:52:33;43.45;;;28.65;;
20527;SDS011;23612;50.894;10.700;2022-11-14T14:55:01;24.83;;;18.70;;
20527;SDS011;23612;50.894;10.700;2022-11-14T14:57:28;25.80;;;18.48;;
20527;SDS011;23612;50.894;10.700;2022-11-14T15:00:05;27.23;;;19.02;;
20527;SDS011;23612;50.894;10.700;2022-11-14T15:02:54;29.17;;;19.58;;
20527;SDS011;23612;50.894;10.700;2022-11-14T15:05:21;28.05;;;20.20;;
20527;SDS011;23612;50.894;10.700;2022-11-14T15:07:48;34.22;;;21.05;;
20527;SDS011;23612;50.894;10.700;2022-11-14T15:10:18;35.88;;;21.92;;
20527;SDS011;23612;50.894;10.700;2022-11-14T15:12:48;32.00;;;21.10;;
20527;SDS011;23612;50.894;10.700;2022-11-14T15:15:15;38.85;;;22.08;;
20527;SDS011;23612;50.894;10.700;2022-11-14T15:17:42;32.08;;;21.85;;
20527;SDS011;23612;50.894;10.700;2022-11-14T15:20:21;42.38;;;22.33;;
20527;SDS011;23612;50.894;10.700;2022-11-14T15:23:02;32.72;;;19.40;;
20527;SDS011;23612;50.894;10.700;2022-11-14T15:25:34;29.08;;;19.52;;
20527;SDS011;23612;50.894;10.700;2022-11-14T15:28:01;30.42;;;20.05;;
20527;SDS011;23612;50.894;10.700;2022-11-14T15:30:28;33.85;;;21.15;;
20527;SDS011;23612;50.894;10.700;2022-11-14T15:32:56;43.47;;;28.40;;
20527;SDS011;23612;50.894;10.700;2022-11-14T15:35:41;35.25;;;21.60;;
20527;SDS011;23612;50.894;10.700;2022-11-14T15:40:36;38.00;;;23.27;;
20527;SDS011;23612;50.894;10.700;2022-11-14T15:48:50;32.55;;;20.92;;
20527;SDS011;23612;50.894;10.700;2022-11-14T15:51:16;34.60;;;21.33;;
20527;SDS011;23612;50.894;10.700;2022-11-14T15:53:44;33.45;;;23.17;;
20527;SDS011;23612;50.894;10.700;2022-11-14T15:56:11;34.88;;;21.10;;
20527;SDS011;23612;50.894;10.700;2022-11-14T15:58:38;33.53;;;22.02;;
20527;SDS011;23612;50.894;10.700;2022-11-14T16:01:03;38.15;;;21.42;;
20527;SDS011;23612;50.894;10.700;2022-11-14T16:03:33;32.40;;;19.90;;
20527;SDS011;23612;50.894;10.700;2022-11-14T16:05:58;35.45;;;21.30;;